Terminal Aerodrome Forecast
Issued by NWS Duluth, MN

Home | Current Version | Previous Version | Text Only | Print | Product List | Glossary On
Versions: 1 2 3 4 5 6 7 8 9 10 11 12 13 14 15 16 17 18 19 20 21 22 23 24 25 26 27 28 29 30 31 32 33 34 35 36 37 38 39 40 41
000
FTUS43 KDLH 201244 AAR
TAFDLH
TAF AMD
KDLH 201244Z 2013/2112 11005KT P6SM -SN SCT007 OVC015
      TEMPO 2013/2014 5SM -FZDZSN BKN007
     FM201400 13006KT P6SM VCSH SCT019 BKN040
     FM202000 12010KT 3/4SM -SN BR OVC008
      TEMPO 2021/2024 1/2SM SN VV005
     FM210500 15006KT 3SM -SN BR OVC004
     FM211000 25008KT P6SM BKN008=

USA.gov is the U.S. government's official web portal to all federal, state and local government web resources and services.